createdAt,value
2018-05-10T00:01:59.295Z,22.27
2018-05-10T00:04:26.924Z,15.73
2018-05-10T00:06:54.554Z,11.87
2018-05-10T00:09:22.166Z,27.27
2018-05-10T00:11:49.803Z,15.37
2018-05-10T00:14:17.472Z,12.97
2018-05-10T00:16:45.102Z,20.90
2018-05-10T00:19:12.797Z,13.53
2018-05-10T00:21:40.438Z,10.63
2018-05-10T00:24:08.041Z,11.77
2018-05-10T00:26:35.787Z,16.47
2018-05-10T00:29:03.411Z,14.73
2018-05-10T00:31:31.060Z,8.50
2018-05-10T00:33:58.771Z,20.50
2018-05-10T00:36:26.431Z,21.80
2018-05-10T00:38:54.042Z,11.10
2018-05-10T00:41:21.684Z,13.13
2018-05-10T00:43:49.320Z,11.77
2018-05-10T00:46:16.954Z,21.50
2018-05-10T00:48:44.562Z,13.63
2018-05-10T00:51:12.183Z,20.77
2018-05-10T00:53:39.822Z,12.27
2018-05-10T00:56:07.435Z,15.37
2018-05-10T00:58:35.077Z,22.50
2018-05-10T01:01:02.750Z,15.03
2018-05-10T01:03:30.391Z,30.87
2018-05-10T01:05:58.074Z,14.43
2018-05-10T01:08:25.739Z,11.60
2018-05-10T01:10:53.399Z,12.73
2018-05-10T01:13:21.095Z,18.23
2018-05-10T01:15:48.683Z,13.60
2018-05-10T01:18:16.378Z,16.50
2018-05-10T01:20:43.992Z,11.70
2018-05-10T01:23:11.631Z,17.10
2018-05-10T01:25:39.250Z,18.83
2018-05-10T01:28:06.883Z,21.93
2018-05-10T01:30:34.498Z,19.53
2018-05-10T01:33:02.151Z,27.87
2018-05-10T01:38:30.041Z,20.27
2018-05-10T01:40:57.659Z,16.77
2018-05-10T01:43:25.302Z,18.57
2018-05-10T01:45:52.920Z,18.33
2018-05-10T01:48:20.586Z,35.47
2018-05-10T01:50:48.194Z,14.10
2018-05-10T01:53:15.914Z,22.83
2018-05-10T01:55:43.538Z,25.43
2018-05-10T01:58:11.243Z,18.17
2018-05-10T02:00:38.898Z,16.90
2018-05-10T02:03:06.559Z,13.33
2018-05-10T02:05:34.222Z,17.63
2018-05-10T02:08:01.891Z,15.23
2018-05-10T02:10:35.063Z,13.47
2018-05-10T02:13:02.718Z,22.43
2018-05-10T02:15:30.335Z,24.70
2018-05-10T02:17:57.962Z,14.10
2018-05-10T02:20:25.626Z,21.13
2018-05-10T02:22:53.286Z,24.70
2018-05-10T02:25:20.929Z,20.77
2018-05-10T02:27:48.542Z,18.20
2018-05-10T02:30:16.171Z,16.40
2018-05-10T02:32:43.834Z,18.57
2018-05-10T02:35:11.467Z,19.60
2018-05-10T02:37:39.163Z,24.00
2018-05-10T02:40:06.798Z,17.00
2018-05-10T02:42:34.486Z,24.60
2018-05-10T02:45:02.171Z,22.87
2018-05-10T02:47:29.789Z,16.57
2018-05-10T02:49:57.460Z,22.30
2018-05-10T02:52:25.146Z,18.10
2018-05-10T02:54:52.787Z,19.50
2018-05-10T02:57:20.398Z,22.80
2018-05-10T02:59:48.043Z,13.40
2018-05-10T03:02:15.659Z,15.67
2018-05-10T03:04:43.308Z,12.23
2018-05-10T03:07:11.006Z,19.63
2018-05-10T03:09:38.642Z,18.10
2018-05-10T03:12:06.254Z,15.87
2018-05-10T03:14:33.915Z,15.20
2018-05-10T03:17:01.559Z,18.50
2018-05-10T03:19:29.218Z,21.53
2018-05-10T03:21:56.834Z,17.97
2018-05-10T03:24:24.482Z,22.60
2018-05-10T03:26:52.203Z,13.73
2018-05-10T03:29:19.810Z,15.30
2018-05-10T03:31:47.529Z,20.00
2018-05-10T03:34:15.146Z,15.40
2018-05-10T03:36:42.798Z,17.63
2018-05-10T03:39:10.410Z,15.33
2018-05-10T03:41:38.078Z,17.03
2018-05-10T03:44:05.738Z,17.90
2018-05-10T03:46:33.401Z,12.30
2018-05-10T03:49:01.010Z,45.57
2018-05-10T03:51:28.645Z,18.43
2018-05-10T03:53:56.291Z,14.47
2018-05-10T03:56:23.953Z,20.50
2018-05-10T03:58:51.566Z,15.33
2018-05-10T04:01:19.206Z,14.57
2018-05-10T04:03:58.609Z,30.10
2018-05-10T04:06:38.050Z,21.33
2018-05-10T04:09:17.346Z,18.40
2018-05-10T04:11:45.050Z,12.90
2018-05-10T04:14:12.715Z,13.23
2018-05-10T04:16:40.350Z,13.87
2018-05-10T04:19:07.966Z,14.13
2018-05-10T04:21:35.694Z,12.80
2018-05-10T04:24:03.358Z,21.37
2018-05-10T04:26:31.005Z,18.17
2018-05-10T04:28:58.617Z,23.20
2018-05-10T04:31:26.251Z,26.90
2018-05-10T04:33:53.891Z,12.57
2018-05-10T04:36:21.498Z,25.23
2018-05-10T04:38:49.130Z,19.47
2018-05-10T04:41:16.791Z,17.23
2018-05-10T04:43:44.454Z,17.23
2018-05-10T04:46:12.127Z,15.10
2018-05-10T04:48:39.782Z,15.40
2018-05-10T04:51:07.402Z,15.87
2018-05-10T04:53:35.070Z,13.80
2018-05-10T04:56:02.682Z,18.77
2018-05-10T04:58:30.314Z,16.40
2018-05-10T05:00:57.926Z,16.37
2018-05-10T05:03:25.590Z,12.80
2018-05-10T05:05:53.199Z,10.63
2018-05-10T05:08:20.839Z,23.20
2018-05-10T05:10:48.542Z,22.50
2018-05-10T05:13:16.199Z,16.43
2018-05-10T05:15:43.858Z,19.10
2018-05-10T05:18:11.494Z,27.60
2018-05-10T05:20:39.110Z,11.87
2018-05-10T05:23:06.750Z,22.93
2018-05-10T05:25:34.361Z,30.00
2018-05-10T05:28:02.010Z,20.33
2018-05-10T05:30:29.614Z,11.20
2018-05-10T05:32:57.290Z,18.43
2018-05-10T05:35:24.954Z,10.27
2018-05-10T05:37:52.558Z,20.03
2018-05-10T05:40:20.383Z,18.03
2018-05-10T05:42:47.993Z,20.10
2018-05-10T05:45:15.617Z,22.70
2018-05-10T05:47:43.267Z,20.87
2018-05-10T05:50:10.933Z,10.00
2018-05-10T05:52:38.595Z,10.90
2018-05-10T05:55:06.324Z,13.93
2018-05-10T05:57:33.878Z,19.33
2018-05-10T06:00:01.510Z,8.60
2018-05-10T06:02:29.124Z,19.57
2018-05-10T06:04:56.806Z,11.07
2018-05-10T06:07:24.466Z,9.20
2018-05-10T06:09:52.094Z,9.13
2018-05-10T06:12:19.712Z,13.67
2018-05-10T06:14:47.345Z,8.70
2018-05-10T06:17:15.015Z,25.23
2018-05-10T06:19:42.643Z,13.33
2018-05-10T06:22:10.334Z,10.70
2018-05-10T06:24:37.966Z,12.60
2018-05-10T06:27:05.579Z,12.40
2018-05-10T06:29:33.321Z,17.33
2018-05-10T06:32:00.989Z,13.30
2018-05-10T06:34:28.619Z,19.47
2018-05-10T06:36:56.226Z,10.40
2018-05-10T06:39:23.974Z,13.00
2018-05-10T06:41:51.636Z,13.27
2018-05-10T06:44:19.242Z,20.57
2018-05-10T06:46:46.894Z,17.77
2018-05-10T06:49:14.594Z,22.40
2018-05-10T06:51:42.291Z,14.30
2018-05-10T06:54:09.960Z,19.13
2018-05-10T06:56:37.560Z,12.43
2018-05-10T06:59:05.174Z,11.83
2018-05-10T07:01:32.803Z,16.67
2018-05-10T07:04:00.412Z,12.53
2018-05-10T07:06:28.163Z,12.90
2018-05-10T07:08:55.854Z,17.85
2018-05-10T07:11:23.562Z,17.73
2018-05-10T07:13:51.350Z,16.90
2018-05-10T07:16:18.979Z,16.40
2018-05-10T07:18:46.592Z,17.17
2018-05-10T07:21:14.227Z,14.13
2018-05-10T07:23:41.842Z,19.93
2018-05-10T07:26:09.469Z,15.37
2018-05-10T07:28:37.106Z,11.53
2018-05-10T07:31:04.782Z,14.10
2018-05-10T07:33:32.394Z,19.93
2018-05-10T07:36:00.028Z,12.70
2018-05-10T07:38:27.634Z,13.37
2018-05-10T07:40:55.262Z,15.17
2018-05-10T07:43:22.891Z,10.83
2018-05-10T07:45:50.518Z,17.20
2018-05-10T07:48:18.125Z,22.90
2018-05-10T07:50:45.752Z,10.20
2018-05-10T07:53:13.541Z,15.80
2018-05-10T07:55:41.201Z,16.97
2018-05-10T07:58:08.869Z,24.63
2018-05-10T08:00:36.541Z,17.00
2018-05-10T08:03:04.178Z,28.53
2018-05-10T08:05:31.786Z,14.93
2018-05-10T08:07:59.519Z,11.17
2018-05-10T08:10:27.139Z,16.63
2018-05-10T08:12:54.838Z,15.13
2018-05-10T08:15:22.507Z,12.90
2018-05-10T08:17:50.170Z,12.23
2018-05-10T08:20:17.826Z,19.17
2018-05-10T08:22:45.462Z,25.83
2018-05-10T08:25:13.075Z,21.23
2018-05-10T08:27:46.644Z,20.27
2018-05-10T08:30:14.341Z,17.33
2018-05-10T08:32:41.974Z,23.50
2018-05-10T08:35:09.578Z,16.33
2018-05-10T08:37:37.206Z,15.23
2018-05-10T08:40:04.866Z,16.83
2018-05-10T08:42:32.551Z,10.33
2018-05-10T08:45:00.205Z,20.83
2018-05-10T08:47:27.813Z,14.70
2018-05-10T08:49:55.423Z,21.63
2018-05-10T08:52:23.061Z,18.50
2018-05-10T08:54:50.738Z,25.13
2018-05-10T08:57:18.367Z,16.90
2018-05-10T08:59:45.971Z,13.70
2018-05-10T09:02:13.622Z,15.43
2018-05-10T09:04:41.240Z,19.57
2018-05-10T09:07:08.945Z,19.77
2018-05-10T09:09:36.557Z,26.13
2018-05-10T09:12:04.171Z,18.00
2018-05-10T09:14:31.835Z,21.33
2018-05-10T09:16:59.491Z,28.77
2018-05-10T09:19:27.155Z,12.00
2018-05-10T09:21:54.771Z,11.53
2018-05-10T09:24:22.402Z,11.67
2018-05-10T09:26:50.042Z,15.70
2018-05-10T09:29:17.702Z,17.27
2018-05-10T09:31:45.307Z,7.70
2018-05-10T09:34:12.938Z,13.40
2018-05-10T09:36:40.542Z,30.57
2018-05-10T09:39:08.296Z,22.50
2018-05-10T09:41:35.910Z,21.03
2018-05-10T09:44:03.538Z,17.40
2018-05-10T09:46:31.236Z,14.50
2018-05-10T09:48:58.869Z,13.63
2018-05-10T09:51:26.474Z,17.27
2018-05-10T09:53:54.102Z,14.00
2018-05-10T09:56:21.710Z,15.73
2018-05-10T09:58:49.346Z,30.83
2018-05-10T10:01:16.949Z,16.80
2018-05-10T10:03:44.582Z,14.10
2018-05-10T10:06:12.284Z,17.60
2018-05-10T10:08:39.894Z,14.07
2018-05-10T10:11:07.498Z,18.30
2018-05-10T10:13:35.130Z,17.00
2018-05-10T10:16:02.782Z,20.20
2018-05-10T10:18:30.410Z,15.33
2018-05-10T10:20:58.097Z,15.90
2018-05-10T10:23:25.706Z,15.73
2018-05-10T10:25:53.426Z,19.33
2018-05-10T10:28:21.030Z,19.83
2018-05-10T10:30:48.664Z,19.67
2018-05-10T10:33:16.274Z,17.47
2018-05-10T10:35:43.912Z,26.60
2018-05-10T10:38:11.553Z,22.40
2018-05-10T10:40:39.187Z,20.60
2018-05-10T10:43:06.794Z,14.23
2018-05-10T10:45:34.422Z,19.03
2018-05-10T10:48:02.084Z,10.03
2018-05-10T10:50:29.743Z,13.77
2018-05-10T10:52:57.502Z,16.40
2018-05-10T10:55:25.055Z,12.67
2018-05-10T10:57:52.729Z,11.40
2018-05-10T11:00:20.361Z,17.73
2018-05-10T11:02:48.062Z,10.30
2018-05-10T11:05:15.685Z,14.20
2018-05-10T11:07:43.318Z,14.30
2018-05-10T11:10:10.949Z,15.50
2018-05-10T11:12:38.570Z,11.83
2018-05-10T11:15:06.240Z,11.80
2018-05-10T11:17:33.830Z,13.80
2018-05-10T11:20:01.499Z,31.13
2018-05-10T11:22:29.166Z,29.20
2018-05-10T11:24:56.914Z,15.50
2018-05-10T11:27:24.595Z,16.93
2018-05-10T11:29:52.186Z,16.30
2018-05-10T11:32:19.798Z,11.10
2018-05-10T11:34:47.466Z,10.03
2018-05-10T11:37:15.094Z,15.70
2018-05-10T11:39:42.708Z,13.23
2018-05-10T11:42:10.450Z,15.53
2018-05-10T11:44:38.058Z,20.20
2018-05-10T11:47:05.855Z,19.80
2018-05-10T11:49:33.539Z,24.93
2018-05-10T11:52:01.167Z,14.47
2018-05-10T11:54:28.779Z,13.17
2018-05-10T11:56:56.422Z,11.90
2018-05-10T11:59:24.086Z,22.60
2018-05-10T12:01:51.715Z,30.67
2018-05-10T12:04:19.326Z,13.63
2018-05-10T12:06:47.163Z,7.13
2018-05-10T12:09:14.774Z,15.17
2018-05-10T12:11:42.402Z,19.40
2018-05-10T12:14:10.008Z,20.17
2018-05-10T12:16:37.643Z,28.93
2018-05-10T12:19:05.251Z,18.43
2018-05-10T12:21:32.951Z,13.50
2018-05-10T12:24:00.615Z,15.63
2018-05-10T12:26:28.246Z,11.93
2018-05-10T12:28:55.853Z,22.60
2018-05-10T12:31:23.483Z,18.77
2018-05-10T12:33:51.286Z,11.10
2018-05-10T12:36:18.922Z,13.73
2018-05-10T12:38:46.581Z,11.70
2018-05-10T12:41:14.767Z,8.07
2018-05-10T12:43:42.419Z,9.97
2018-05-10T12:46:10.051Z,20.60
2018-05-10T12:48:37.767Z,13.70
2018-05-10T12:51:05.510Z,15.37
2018-05-10T12:53:33.172Z,12.80
2018-05-10T12:56:00.823Z,14.07
2018-05-10T12:58:28.499Z,13.90
2018-05-10T13:00:56.107Z,13.40
2018-05-10T13:03:23.819Z,10.87
2018-05-10T13:05:51.485Z,19.20
2018-05-10T13:08:19.184Z,19.57
2018-05-10T13:10:46.756Z,11.70
2018-05-10T13:13:14.479Z,10.20
2018-05-10T13:15:42.134Z,21.63
2018-05-10T13:18:09.761Z,27.77
2018-05-10T13:20:37.366Z,16.70
2018-05-10T13:23:05.023Z,15.80
2018-05-10T13:25:32.630Z,17.03
2018-05-10T13:28:00.262Z,14.33
2018-05-10T13:30:27.866Z,7.70
2018-05-10T13:32:55.567Z,9.63
2018-05-10T13:35:23.231Z,13.30
2018-05-10T13:37:50.890Z,14.17
2018-05-10T13:40:18.560Z,14.23
2018-05-10T13:42:46.214Z,15.40
2018-05-10T13:45:13.827Z,14.77
2018-05-10T13:47:41.479Z,38.87
2018-05-10T13:50:09.087Z,15.70
2018-05-10T13:52:36.718Z,10.97
2018-05-10T13:55:04.322Z,15.17
2018-05-10T13:57:31.950Z,27.10
2018-05-10T13:59:59.555Z,12.57
2018-05-10T14:02:27.315Z,20.60
2018-05-10T14:04:54.974Z,18.90
2018-05-10T14:07:22.638Z,10.17
2018-05-10T14:09:50.267Z,15.57
2018-05-10T14:12:17.877Z,18.80
2018-05-10T14:14:45.523Z,9.27
2018-05-10T14:17:13.183Z,16.03
2018-05-10T14:19:40.846Z,22.67
2018-05-10T14:22:08.578Z,18.63
2018-05-10T14:24:36.105Z,17.53
2018-05-10T14:27:03.716Z,13.47
2018-05-10T14:29:31.359Z,22.93
2018-05-10T14:31:59.002Z,13.63
2018-05-10T14:34:26.635Z,15.70
2018-05-10T14:36:54.242Z,14.20
2018-05-10T14:39:21.948Z,18.60
2018-05-10T14:41:49.566Z,16.73
2018-05-10T14:44:17.271Z,24.40
2018-05-10T14:46:44.896Z,10.00
2018-05-10T14:49:12.585Z,13.33
2018-05-10T14:51:40.187Z,9.03
2018-05-10T14:54:07.847Z,6.77
2018-05-10T14:56:35.479Z,8.10
2018-05-10T14:59:03.138Z,12.33
2018-05-10T15:01:30.755Z,11.97
2018-05-10T15:03:58.381Z,16.73
2018-05-10T15:06:25.990Z,9.30
2018-05-10T15:08:53.685Z,9.93
2018-05-10T15:11:21.347Z,12.17
2018-05-10T15:13:49.011Z,19.83
2018-05-10T15:16:16.626Z,17.60
2018-05-10T15:18:44.234Z,13.37
2018-05-10T15:21:11.862Z,27.97
2018-05-10T15:23:39.600Z,31.87
2018-05-10T15:26:07.206Z,11.47
2018-05-10T15:28:34.818Z,12.30
2018-05-10T15:31:02.446Z,27.47
2018-05-10T15:33:30.050Z,21.83
2018-05-10T15:35:57.698Z,12.40
2018-05-10T15:38:25.312Z,14.43
2018-05-10T15:40:52.947Z,12.30
2018-05-10T15:43:20.564Z,28.07
2018-05-10T15:45:48.211Z,19.40
2018-05-10T15:48:15.826Z,15.97
2018-05-10T15:50:43.542Z,17.80
2018-05-10T15:53:11.146Z,36.73
2018-05-10T15:55:38.770Z,16.37
2018-05-10T15:58:06.422Z,17.27
2018-05-10T16:00:34.055Z,17.43
2018-05-10T16:03:01.673Z,14.50
2018-05-10T16:05:29.304Z,12.83
2018-05-10T16:07:56.967Z,9.63
2018-05-10T16:10:24.598Z,27.77
2018-05-10T16:12:52.291Z,25.40
2018-05-10T16:15:19.954Z,21.87
2018-05-10T16:17:47.557Z,20.33
2018-05-10T16:20:15.186Z,22.33
2018-05-10T16:22:42.795Z,11.97
2018-05-10T16:25:10.431Z,10.77
2018-05-10T16:27:38.042Z,20.57
2018-05-10T16:30:05.722Z,18.63
2018-05-10T16:32:33.391Z,14.40
2018-05-10T16:35:01.046Z,19.90
2018-05-10T16:37:28.678Z,12.53
2018-05-10T16:39:56.374Z,16.33
2018-05-10T16:42:24.034Z,21.73
2018-05-10T16:44:51.698Z,18.40
2018-05-10T16:47:19.327Z,20.83
2018-05-10T16:49:46.979Z,23.03
2018-05-10T16:52:14.682Z,19.37
2018-05-10T16:54:42.291Z,8.60
2018-05-10T16:57:10.015Z,13.77
2018-05-10T16:59:37.674Z,64.07
2018-05-10T17:02:05.305Z,51.03
2018-05-10T17:04:32.994Z,20.23
2018-05-10T17:07:00.966Z,16.17
2018-05-10T17:09:28.735Z,19.73
2018-05-10T17:11:56.394Z,11.87
2018-05-10T17:14:24.011Z,19.63
2018-05-10T17:16:51.646Z,11.90
2018-05-10T17:19:19.278Z,18.70
2018-05-10T17:21:46.910Z,14.73
2018-05-10T17:24:14.510Z,16.17
2018-05-10T17:26:42.139Z,17.33
2018-05-10T17:29:09.833Z,16.83
2018-05-10T17:31:37.586Z,16.13
2018-05-10T17:34:05.352Z,16.40
2018-05-10T17:36:33.123Z,37.40
2018-05-10T17:39:01.291Z,25.23
2018-05-10T17:41:28.932Z,23.00
2018-05-10T17:43:56.543Z,23.37
2018-05-10T17:46:24.225Z,25.47
2018-05-10T17:48:51.862Z,23.17
2018-05-10T17:51:19.470Z,28.20
2018-05-10T17:53:47.112Z,34.83
2018-05-10T17:56:14.831Z,29.37
2018-05-10T17:58:42.474Z,21.93
2018-05-10T18:01:10.192Z,28.43
2018-05-10T18:03:37.915Z,27.33
2018-05-10T18:06:05.582Z,9.90
2018-05-10T18:08:33.212Z,20.13
2018-05-10T18:11:00.898Z,26.40
2018-05-10T18:13:28.535Z,26.37
2018-05-10T18:15:56.155Z,20.40
2018-05-10T18:18:23.896Z,23.70
2018-05-10T18:20:51.554Z,15.70
2018-05-10T18:23:19.258Z,19.60
2018-05-10T18:25:46.864Z,18.63
2018-05-10T18:28:14.546Z,30.63
2018-05-10T18:30:42.201Z,28.47
2018-05-10T18:33:09.884Z,19.83
2018-05-10T18:35:37.466Z,27.97
2018-05-10T18:38:05.191Z,33.43
2018-05-10T18:40:32.802Z,20.80
2018-05-10T18:43:00.515Z,23.70
2018-05-10T18:45:28.174Z,13.00
2018-05-10T18:47:55.811Z,18.20
2018-05-10T18:50:24.297Z,26.73
2018-05-10T18:52:52.081Z,20.80
2018-05-10T18:55:20.328Z,31.20
2018-05-10T18:57:48.022Z,16.37
2018-05-10T19:00:15.630Z,22.27
2018-05-10T19:02:43.245Z,26.47
2018-05-10T19:05:10.870Z,14.40
2018-05-10T19:07:38.574Z,15.13
2018-05-10T19:10:06.231Z,13.43
2018-05-10T19:12:33.899Z,26.13
2018-05-10T19:15:01.531Z,26.17
2018-05-10T19:17:29.224Z,30.10
2018-05-10T19:19:56.886Z,24.40
2018-05-10T19:22:24.499Z,28.47
2018-05-10T19:24:52.138Z,28.10
2018-05-10T19:27:19.765Z,25.00
2018-05-10T19:29:47.403Z,24.00
2018-05-10T19:32:15.026Z,23.23
2018-05-10T19:34:42.758Z,23.47
2018-05-10T19:37:10.537Z,24.03
2018-05-10T19:39:38.154Z,23.87
2018-05-10T19:42:05.774Z,23.43
2018-05-10T19:44:33.504Z,21.30
2018-05-10T19:47:01.383Z,34.93
2018-05-10T19:49:29.018Z,24.10
2018-05-10T19:51:56.634Z,37.17
2018-05-10T19:54:24.277Z,40.53
2018-05-10T19:56:51.971Z,31.50
2018-05-10T19:59:19.554Z,37.93
2018-05-10T20:01:47.202Z,31.90
2018-05-10T20:04:14.850Z,25.83
2018-05-10T20:06:42.514Z,32.10
2018-05-10T20:09:10.231Z,44.00
2018-05-10T20:11:37.847Z,34.80
2018-05-10T20:14:05.558Z,34.10
2018-05-10T20:16:33.166Z,35.47
2018-05-10T20:19:00.786Z,34.17
2018-05-10T20:21:28.442Z,44.80
2018-05-10T20:23:56.097Z,50.80
2018-05-10T20:26:23.727Z,38.93
2018-05-10T20:28:51.352Z,37.03
2018-05-10T20:31:18.990Z,27.63
2018-05-10T20:33:46.659Z,38.97
2018-05-10T20:36:14.300Z,34.83
2018-05-10T20:38:41.924Z,30.07
2018-05-10T20:41:09.597Z,32.67
2018-05-10T20:43:37.303Z,25.53
2018-05-10T20:46:04.938Z,25.83
2018-05-10T20:48:32.561Z,33.07
2018-05-10T20:51:00.291Z,27.57
2018-05-10T20:53:27.950Z,29.70
2018-05-10T20:55:55.613Z,36.17
2018-05-10T20:58:23.278Z,34.63
2018-05-10T21:00:50.918Z,31.17
2018-05-10T21:03:18.534Z,24.00
2018-05-10T21:05:46.783Z,23.70
2018-05-10T21:08:14.438Z,34.00
2018-05-10T21:10:42.094Z,24.90
2018-05-10T21:13:10.331Z,22.50
2018-05-10T21:15:38.034Z,26.37
2018-05-10T21:18:06.002Z,22.70
2018-05-10T21:20:33.641Z,19.43
2018-05-10T21:23:01.254Z,27.80
2018-05-10T21:25:28.995Z,32.73
2018-05-10T21:27:56.654Z,29.43
2018-05-10T21:30:24.341Z,27.03
2018-05-10T21:32:51.979Z,28.33
2018-05-10T21:35:19.619Z,25.47
2018-05-10T21:37:47.264Z,16.37
2018-05-10T21:40:14.879Z,20.80
2018-05-10T21:42:42.514Z,27.40
2018-05-10T21:45:10.193Z,45.90
2018-05-10T21:47:37.826Z,28.50
2018-05-10T21:50:06.432Z,17.63
2018-05-10T21:52:34.071Z,27.33
2018-05-10T21:55:01.747Z,28.47
2018-05-10T21:57:29.422Z,27.47
2018-05-10T21:59:57.087Z,21.33
2018-05-10T22:02:24.757Z,41.10
2018-05-10T22:04:52.365Z,20.40
2018-05-10T22:07:20.077Z,18.37
2018-05-10T22:09:47.695Z,29.13
2018-05-10T22:12:15.364Z,30.03
2018-05-10T22:14:42.970Z,26.00
2018-05-10T22:17:10.626Z,21.70
2018-05-10T22:19:38.265Z,19.70
2018-05-10T22:22:05.904Z,24.33
2018-05-10T22:24:33.682Z,16.30
2018-05-10T22:27:01.285Z,19.90
2018-05-10T22:29:28.931Z,20.03
2018-05-10T22:31:56.572Z,23.97
2018-05-10T22:34:24.263Z,18.30
2018-05-10T22:36:51.893Z,20.40
2018-05-10T22:39:19.582Z,18.10
2018-05-10T22:41:47.349Z,22.80
2018-05-10T22:44:15.011Z,21.57
2018-05-10T22:46:42.666Z,27.83
2018-05-10T22:49:10.338Z,25.53
2018-05-10T22:51:37.950Z,27.80
2018-05-10T22:54:05.605Z,36.67
2018-05-10T22:56:33.318Z,29.67
2018-05-10T22:59:00.983Z,23.07
2018-05-10T23:01:28.599Z,34.27
2018-05-10T23:03:56.234Z,29.47
2018-05-10T23:06:23.842Z,25.10
2018-05-10T23:08:51.495Z,26.30
2018-05-10T23:11:19.106Z,31.57
2018-05-10T23:13:46.858Z,30.33
2018-05-10T23:16:14.469Z,27.63
2018-05-10T23:18:42.101Z,32.10
2018-05-10T23:21:09.713Z,31.33
2018-05-10T23:23:37.398Z,36.93
2018-05-10T23:26:05.011Z,40.67
2018-05-10T23:28:32.651Z,37.60
2018-05-10T23:31:00.269Z,45.57
2018-05-10T23:33:27.908Z,38.10
2018-05-10T23:35:55.570Z,40.57
2018-05-10T23:38:23.202Z,52.80
2018-05-10T23:40:50.831Z,54.83
2018-05-10T23:43:18.463Z,46.10
2018-05-10T23:45:46.177Z,61.57
2018-05-10T23:48:13.923Z,67.07
2018-05-10T23:50:41.531Z,70.03
2018-05-10T23:53:09.251Z,50.43
2018-05-10T23:55:36.914Z,53.13
2018-05-10T23:58:04.570Z,62.73
